sensor_id;sensor_type;location;lat;lon;timestamp;P1;durP1;ratioP1;P2;durP2;ratioP2
42084;SDS011;27746;52.228;20.890;2023-08-30T00:00:50;22.48;;;17.52;;
42084;SDS011;27746;52.228;20.890;2023-08-30T00:03:19;24.75;;;17.48;;
42084;SDS011;27746;52.228;20.890;2023-08-30T00:05:46;26.13;;;17.23;;
42084;SDS011;27746;52.228;20.890;2023-08-30T00:08:13;20.73;;;14.52;;
42084;SDS011;27746;52.228;20.890;2023-08-30T00:10:43;24.33;;;16.42;;
42084;SDS011;27746;52.228;20.890;2023-08-30T00:13:10;23.02;;;16.35;;
42084;SDS011;27746;52.228;20.890;2023-08-30T00:15:37;23.88;;;17.70;;
42084;SDS011;27746;52.228;20.890;2023-08-30T00:18:05;24.80;;;18.08;;
42084;SDS011;27746;52.228;20.890;2023-08-30T00:20:33;26.38;;;17.20;;
42084;SDS011;27746;52.228;20.890;2023-08-30T00:23:00;26.67;;;18.50;;
42084;SDS011;27746;52.228;20.890;2023-08-30T00:25:28;25.65;;;19.23;;
42084;SDS011;27746;52.228;20.890;2023-08-30T00:27:55;23.50;;;18.52;;
42084;SDS011;27746;52.228;20.890;2023-08-30T00:30:22;28.02;;;20.75;;
42084;SDS011;27746;52.228;20.890;2023-08-30T00:32:49;26.45;;;20.80;;
42084;SDS011;27746;52.228;20.890;2023-08-30T00:35:17;32.65;;;21.52;;
42084;SDS011;27746;52.228;20.890;2023-08-30T00:37:46;26.90;;;19.98;;
42084;SDS011;27746;52.228;20.890;2023-08-30T00:40:13;33.30;;;20.75;;
42084;SDS011;27746;52.228;20.890;2023-08-30T00:42:40;28.23;;;21.13;;
42084;SDS011;27746;52.228;20.890;2023-08-30T00:45:08;31.42;;;23.00;;
42084;SDS011;27746;52.228;20.890;2023-08-30T00:47:35;31.80;;;21.50;;
42084;SDS011;27746;52.228;20.890;2023-08-30T00:50:02;28.38;;;21.00;;
42084;SDS011;27746;52.228;20.890;2023-08-30T00:52:30;33.22;;;21.48;;
42084;SDS011;27746;52.228;20.890;2023-08-30T00:57:27;30.20;;;21.70;;
42084;SDS011;27746;52.228;20.890;2023-08-30T00:59:55;28.17;;;20.77;;
42084;SDS011;27746;52.228;20.890;2023-08-30T01:02:22;27.48;;;18.63;;
42084;SDS011;27746;52.228;20.890;2023-08-30T01:04:50;24.77;;;18.80;;
42084;SDS011;27746;52.228;20.890;2023-08-30T01:07:17;29.13;;;19.60;;
42084;SDS011;27746;52.228;20.890;2023-08-30T01:09:45;30.33;;;20.70;;
42084;SDS011;27746;52.228;20.890;2023-08-30T01:12:13;26.77;;;19.45;;
42084;SDS011;27746;52.228;20.890;2023-08-30T01:14:45;24.08;;;16.85;;
42084;SDS011;27746;52.228;20.890;2023-08-30T01:17:15;25.77;;;19.90;;
42084;SDS011;27746;52.228;20.890;2023-08-30T01:19:46;24.08;;;16.92;;
42084;SDS011;27746;52.228;20.890;2023-08-30T01:22:17;24.05;;;18.45;;
42084;SDS011;27746;52.228;20.890;2023-08-30T01:24:48;24.40;;;18.23;;
42084;SDS011;27746;52.228;20.890;2023-08-30T01:27:18;28.30;;;19.63;;
42084;SDS011;27746;52.228;20.890;2023-08-30T01:29:46;27.88;;;19.88;;
42084;SDS011;27746;52.228;20.890;2023-08-30T01:32:14;27.35;;;18.25;;
42084;SDS011;27746;52.228;20.890;2023-08-30T01:34:41;25.88;;;18.88;;
42084;SDS011;27746;52.228;20.890;2023-08-30T01:37:12;27.25;;;19.23;;
42084;SDS011;27746;52.228;20.890;2023-08-30T01:39:40;27.90;;;19.35;;
42084;SDS011;27746;52.228;20.890;2023-08-30T01:42:08;27.40;;;19.48;;
42084;SDS011;27746;52.228;20.890;2023-08-30T01:44:37;27.38;;;18.75;;
42084;SDS011;27746;52.228;20.890;2023-08-30T01:47:06;23.00;;;17.45;;
42084;SDS011;27746;52.228;20.890;2023-08-30T01:49:33;27.98;;;19.30;;
42084;SDS011;27746;52.228;20.890;2023-08-30T01:52:02;27.30;;;19.20;;
42084;SDS011;27746;52.228;20.890;2023-08-30T01:54:30;28.77;;;19.88;;
42084;SDS011;27746;52.228;20.890;2023-08-30T01:56:58;28.70;;;19.40;;
42084;SDS011;27746;52.228;20.890;2023-08-30T01:59:25;26.50;;;18.55;;
42084;SDS011;27746;52.228;20.890;2023-08-30T02:01:54;29.33;;;19.73;;
42084;SDS011;27746;52.228;20.890;2023-08-30T02:04:21;26.65;;;19.10;;
42084;SDS011;27746;52.228;20.890;2023-08-30T02:06:50;27.50;;;18.42;;
42084;SDS011;27746;52.228;20.890;2023-08-30T02:09:21;28.40;;;19.92;;
42084;SDS011;27746;52.228;20.890;2023-08-30T02:11:48;27.70;;;19.92;;
42084;SDS011;27746;52.228;20.890;2023-08-30T02:14:16;32.63;;;19.85;;
42084;SDS011;27746;52.228;20.890;2023-08-30T02:16:44;28.23;;;20.42;;
42084;SDS011;27746;52.228;20.890;2023-08-30T02:19:13;27.20;;;19.10;;
42084;SDS011;27746;52.228;20.890;2023-08-30T02:21:42;28.35;;;19.17;;
42084;SDS011;27746;52.228;20.890;2023-08-30T02:24:09;26.80;;;18.67;;
42084;SDS011;27746;52.228;20.890;2023-08-30T02:26:36;26.65;;;18.63;;
42084;SDS011;27746;52.228;20.890;2023-08-30T02:29:04;30.02;;;19.50;;
42084;SDS011;27746;52.228;20.890;2023-08-30T02:31:31;26.30;;;19.75;;
42084;SDS011;27746;52.228;20.890;2023-08-30T02:33:58;29.55;;;17.83;;
42084;SDS011;27746;52.228;20.890;2023-08-30T02:36:26;29.05;;;21.20;;
42084;SDS011;27746;52.228;20.890;2023-08-30T02:38:54;27.40;;;19.27;;
42084;SDS011;27746;52.228;20.890;2023-08-30T02:41:21;27.85;;;18.40;;
42084;SDS011;27746;52.228;20.890;2023-08-30T02:43:48;24.20;;;17.17;;
42084;SDS011;27746;52.228;20.890;2023-08-30T02:46:15;30.58;;;18.33;;
42084;SDS011;27746;52.228;20.890;2023-08-30T02:48:42;29.10;;;17.95;;
42084;SDS011;27746;52.228;20.890;2023-08-30T02:51:09;23.00;;;16.90;;
42084;SDS011;27746;52.228;20.890;2023-08-30T02:53:38;27.95;;;18.30;;
42084;SDS011;27746;52.228;20.890;2023-08-30T02:56:05;25.85;;;18.00;;
42084;SDS011;27746;52.228;20.890;2023-08-30T02:58:33;27.98;;;18.98;;
42084;SDS011;27746;52.228;20.890;2023-08-30T03:01:01;26.92;;;18.40;;
42084;SDS011;27746;52.228;20.890;2023-08-30T03:03:28;27.15;;;18.67;;
42084;SDS011;27746;52.228;20.890;2023-08-30T03:05:55;24.65;;;16.95;;
42084;SDS011;27746;52.228;20.890;2023-08-30T03:08:23;29.52;;;18.15;;
42084;SDS011;27746;52.228;20.890;2023-08-30T03:10:51;24.92;;;18.58;;
42084;SDS011;27746;52.228;20.890;2023-08-30T03:13:18;26.92;;;17.63;;
42084;SDS011;27746;52.228;20.890;2023-08-30T03:15:45;27.02;;;18.73;;
42084;SDS011;27746;52.228;20.890;2023-08-30T03:18:12;27.23;;;19.20;;
42084;SDS011;27746;52.228;20.890;2023-08-30T03:20:40;27.67;;;18.90;;
42084;SDS011;27746;52.228;20.890;2023-08-30T03:23:07;25.58;;;18.95;;
42084;SDS011;27746;52.228;20.890;2023-08-30T03:25:34;30.08;;;19.30;;
42084;SDS011;27746;52.228;20.890;2023-08-30T03:28:03;28.35;;;18.77;;
42084;SDS011;27746;52.228;20.890;2023-08-30T03:30:30;25.60;;;18.30;;
42084;SDS011;27746;52.228;20.890;2023-08-30T03:32:57;27.85;;;17.42;;
42084;SDS011;27746;52.228;20.890;2023-08-30T03:35:24;25.73;;;16.67;;
42084;SDS011;27746;52.228;20.890;2023-08-30T03:37:51;30.60;;;20.70;;
42084;SDS011;27746;52.228;20.890;2023-08-30T03:40:19;28.98;;;19.85;;
42084;SDS011;27746;52.228;20.890;2023-08-30T03:42:46;28.30;;;18.63;;
42084;SDS011;27746;52.228;20.890;2023-08-30T03:45:15;28.67;;;19.17;;
42084;SDS011;27746;52.228;20.890;2023-08-30T03:47:42;29.77;;;19.90;;
42084;SDS011;27746;52.228;20.890;2023-08-30T03:50:09;27.25;;;18.40;;
42084;SDS011;27746;52.228;20.890;2023-08-30T03:52:38;26.05;;;17.95;;
42084;SDS011;27746;52.228;20.890;2023-08-30T03:55:06;32.92;;;21.05;;
42084;SDS011;27746;52.228;20.890;2023-08-30T03:57:33;29.17;;;20.55;;
42084;SDS011;27746;52.228;20.890;2023-08-30T04:00:00;26.48;;;17.23;;
42084;SDS011;27746;52.228;20.890;2023-08-30T04:02:30;27.50;;;19.58;;
42084;SDS011;27746;52.228;20.890;2023-08-30T04:04:57;29.80;;;19.88;;
42084;SDS011;27746;52.228;20.890;2023-08-30T04:07:24;27.92;;;18.75;;
42084;SDS011;27746;52.228;20.890;2023-08-30T04:09:51;30.05;;;18.27;;
42084;SDS011;27746;52.228;20.890;2023-08-30T04:12:18;29.52;;;19.25;;
42084;SDS011;27746;52.228;20.890;2023-08-30T04:14:46;28.35;;;18.75;;
42084;SDS011;27746;52.228;20.890;2023-08-30T04:17:13;30.08;;;19.98;;
42084;SDS011;27746;52.228;20.890;2023-08-30T04:19:41;28.58;;;18.45;;
42084;SDS011;27746;52.228;20.890;2023-08-30T04:22:08;24.15;;;17.77;;
42084;SDS011;27746;52.228;20.890;2023-08-30T04:24:36;27.75;;;18.48;;
42084;SDS011;27746;52.228;20.890;2023-08-30T04:27:03;27.73;;;19.10;;
42084;SDS011;27746;52.228;20.890;2023-08-30T04:29:30;26.95;;;17.95;;
42084;SDS011;27746;52.228;20.890;2023-08-30T04:31:57;28.38;;;17.85;;
42084;SDS011;27746;52.228;20.890;2023-08-30T04:34:24;26.42;;;17.27;;
42084;SDS011;27746;52.228;20.890;2023-08-30T04:36:53;26.05;;;16.88;;
42084;SDS011;27746;52.228;20.890;2023-08-30T04:39:20;31.48;;;18.63;;
42084;SDS011;27746;52.228;20.890;2023-08-30T04:41:47;27.08;;;18.08;;
42084;SDS011;27746;52.228;20.890;2023-08-30T04:44:14;26.17;;;17.42;;
42084;SDS011;27746;52.228;20.890;2023-08-30T04:46:42;28.75;;;19.08;;
42084;SDS011;27746;52.228;20.890;2023-08-30T04:49:09;26.38;;;17.88;;
42084;SDS011;27746;52.228;20.890;2023-08-30T04:51:36;36.47;;;19.10;;
42084;SDS011;27746;52.228;20.890;2023-08-30T04:54:09;27.90;;;17.85;;
42084;SDS011;27746;52.228;20.890;2023-08-30T04:56:36;27.33;;;17.90;;
42084;SDS011;27746;52.228;20.890;2023-08-30T04:59:03;31.00;;;19.27;;
42084;SDS011;27746;52.228;20.890;2023-08-30T05:01:30;28.13;;;18.70;;
42084;SDS011;27746;52.228;20.890;2023-08-30T05:03:57;27.77;;;18.13;;
42084;SDS011;27746;52.228;20.890;2023-08-30T05:06:25;29.27;;;19.38;;
42084;SDS011;27746;52.228;20.890;2023-08-30T05:08:52;28.42;;;17.83;;
42084;SDS011;27746;52.228;20.890;2023-08-30T05:11:23;29.02;;;19.15;;
42084;SDS011;27746;52.228;20.890;2023-08-30T05:13:50;27.50;;;17.45;;
42084;SDS011;27746;52.228;20.890;2023-08-30T05:16:18;30.02;;;18.92;;
42084;SDS011;27746;52.228;20.890;2023-08-30T05:18:45;28.60;;;18.10;;
42084;SDS011;27746;52.228;20.890;2023-08-30T05:21:13;34.38;;;19.90;;
42084;SDS011;27746;52.228;20.890;2023-08-30T05:23:40;34.45;;;19.10;;
42084;SDS011;27746;52.228;20.890;2023-08-30T05:26:08;29.13;;;18.10;;
42084;SDS011;27746;52.228;20.890;2023-08-30T05:28:36;29.40;;;18.75;;
42084;SDS011;27746;52.228;20.890;2023-08-30T05:31:03;28.02;;;18.13;;
42084;SDS011;27746;52.228;20.890;2023-08-30T05:33:31;29.08;;;16.50;;
42084;SDS011;27746;52.228;20.890;2023-08-30T05:35:58;30.10;;;17.00;;
42084;SDS011;27746;52.228;20.890;2023-08-30T05:38:25;25.05;;;16.00;;
42084;SDS011;27746;52.228;20.890;2023-08-30T05:40:52;21.65;;;15.05;;
42084;SDS011;27746;52.228;20.890;2023-08-30T05:43:19;26.23;;;17.02;;
42084;SDS011;27746;52.228;20.890;2023-08-30T05:45:48;26.65;;;16.67;;
42084;SDS011;27746;52.228;20.890;2023-08-30T05:48:15;26.98;;;16.08;;
42084;SDS011;27746;52.228;20.890;2023-08-30T05:50:42;23.77;;;14.88;;
42084;SDS011;27746;52.228;20.890;2023-08-30T05:53:10;24.15;;;15.80;;
42084;SDS011;27746;52.228;20.890;2023-08-30T05:55:37;23.10;;;15.50;;
42084;SDS011;27746;52.228;20.890;2023-08-30T05:58:04;25.30;;;16.50;;
42084;SDS011;27746;52.228;20.890;2023-08-30T06:00:31;24.20;;;16.05;;
42084;SDS011;27746;52.228;20.890;2023-08-30T06:03:00;24.08;;;14.70;;
42084;SDS011;27746;52.228;20.890;2023-08-30T06:05:27;25.73;;;15.45;;
42084;SDS011;27746;52.228;20.890;2023-08-30T06:07:55;21.60;;;13.82;;
42084;SDS011;27746;52.228;20.890;2023-08-30T06:10:22;27.17;;;15.60;;
42084;SDS011;27746;52.228;20.890;2023-08-30T06:12:49;23.75;;;16.35;;
42084;SDS011;27746;52.228;20.890;2023-08-30T06:15:17;25.85;;;16.45;;
42084;SDS011;27746;52.228;20.890;2023-08-30T06:17:44;27.25;;;16.52;;
42084;SDS011;27746;52.228;20.890;2023-08-30T06:20:13;25.35;;;16.13;;
42084;SDS011;27746;52.228;20.890;2023-08-30T06:22:40;28.10;;;16.73;;
42084;SDS011;27746;52.228;20.890;2023-08-30T06:25:08;28.23;;;16.50;;
42084;SDS011;27746;52.228;20.890;2023-08-30T06:27:40;22.98;;;15.23;;
42084;SDS011;27746;52.228;20.890;2023-08-30T06:30:08;24.33;;;14.73;;
42084;SDS011;27746;52.228;20.890;2023-08-30T06:32:35;26.33;;;15.85;;
42084;SDS011;27746;52.228;20.890;2023-08-30T06:35:02;28.77;;;18.23;;
42084;SDS011;27746;52.228;20.890;2023-08-30T06:37:31;27.52;;;16.80;;
42084;SDS011;27746;52.228;20.890;2023-08-30T06:39:59;26.67;;;17.00;;
42084;SDS011;27746;52.228;20.890;2023-08-30T06:42:28;33.47;;;17.52;;
42084;SDS011;27746;52.228;20.890;2023-08-30T06:44:55;31.13;;;17.75;;
42084;SDS011;27746;52.228;20.890;2023-08-30T06:47:22;32.03;;;19.20;;
42084;SDS011;27746;52.228;20.890;2023-08-30T06:49:49;31.63;;;18.45;;
42084;SDS011;27746;52.228;20.890;2023-08-30T06:52:16;28.52;;;17.10;;
42084;SDS011;27746;52.228;20.890;2023-08-30T06:54:45;29.23;;;17.10;;
42084;SDS011;27746;52.228;20.890;2023-08-30T06:57:12;31.23;;;20.00;;
42084;SDS011;27746;52.228;20.890;2023-08-30T06:59:39;28.98;;;16.25;;
42084;SDS011;27746;52.228;20.890;2023-08-30T07:02:06;30.85;;;16.77;;
42084;SDS011;27746;52.228;20.890;2023-08-30T07:04:34;26.63;;;16.10;;
42084;SDS011;27746;52.228;20.890;2023-08-30T07:07:01;29.45;;;17.33;;
42084;SDS011;27746;52.228;20.890;2023-08-30T07:09:30;28.73;;;16.40;;
42084;SDS011;27746;52.228;20.890;2023-08-30T07:11:59;25.20;;;17.48;;
42084;SDS011;27746;52.228;20.890;2023-08-30T07:14:26;27.65;;;16.48;;
42084;SDS011;27746;52.228;20.890;2023-08-30T07:16:54;32.88;;;20.33;;
42084;SDS011;27746;52.228;20.890;2023-08-30T07:19:21;28.60;;;19.13;;
42084;SDS011;27746;52.228;20.890;2023-08-30T07:21:48;25.77;;;16.23;;
42084;SDS011;27746;52.228;20.890;2023-08-30T07:24:15;25.05;;;16.65;;
42084;SDS011;27746;52.228;20.890;2023-08-30T07:26:43;28.05;;;16.50;;
42084;SDS011;27746;52.228;20.890;2023-08-30T07:29:11;27.65;;;16.80;;
42084;SDS011;27746;52.228;20.890;2023-08-30T07:31:38;29.23;;;16.83;;
42084;SDS011;27746;52.228;20.890;2023-08-30T07:34:06;30.85;;;17.80;;
42084;SDS011;27746;52.228;20.890;2023-08-30T07:36:34;31.27;;;18.63;;
42084;SDS011;27746;52.228;20.890;2023-08-30T07:39:01;31.83;;;18.42;;
42084;SDS011;27746;52.228;20.890;2023-08-30T07:41:28;31.27;;;19.10;;
42084;SDS011;27746;52.228;20.890;2023-08-30T07:43:55;28.73;;;18.55;;
42084;SDS011;27746;52.228;20.890;2023-08-30T07:46:24;32.28;;;19.92;;
42084;SDS011;27746;52.228;20.890;2023-08-30T07:48:51;31.27;;;18.77;;
42084;SDS011;27746;52.228;20.890;2023-08-30T07:51:19;32.25;;;18.85;;
42084;SDS011;27746;52.228;20.890;2023-08-30T07:53:46;30.23;;;17.35;;
42084;SDS011;27746;52.228;20.890;2023-08-30T07:56:13;27.88;;;15.85;;
42084;SDS011;27746;52.228;20.890;2023-08-30T07:58:40;25.40;;;16.13;;
42084;SDS011;27746;52.228;20.890;2023-08-30T08:01:07;24.42;;;15.43;;
42084;SDS011;27746;52.228;20.890;2023-08-30T08:03:36;24.63;;;15.55;;
42084;SDS011;27746;52.228;20.890;2023-08-30T08:06:05;22.23;;;14.70;;
42084;SDS011;27746;52.228;20.890;2023-08-30T08:08:33;28.88;;;15.95;;
42084;SDS011;27746;52.228;20.890;2023-08-30T08:11:00;26.25;;;16.02;;
42084;SDS011;27746;52.228;20.890;2023-08-30T08:13:27;30.02;;;16.58;;
42084;SDS011;27746;52.228;20.890;2023-08-30T08:15:55;23.30;;;15.07;;
42084;SDS011;27746;52.228;20.890;2023-08-30T08:18:23;24.38;;;14.70;;
42084;SDS011;27746;52.228;20.890;2023-08-30T08:20:51;26.27;;;15.50;;
42084;SDS011;27746;52.228;20.890;2023-08-30T08:23:19;26.80;;;16.20;;
42084;SDS011;27746;52.228;20.890;2023-08-30T08:25:46;22.95;;;15.10;;
42084;SDS011;27746;52.228;20.890;2023-08-30T08:28:13;23.65;;;14.02;;
42084;SDS011;27746;52.228;20.890;2023-08-30T08:30:41;21.33;;;13.55;;
42084;SDS011;27746;52.228;20.890;2023-08-30T08:33:10;20.67;;;13.43;;
42084;SDS011;27746;52.228;20.890;2023-08-30T08:35:37;26.30;;;14.75;;
42084;SDS011;27746;52.228;20.890;2023-08-30T08:38:06;23.27;;;13.68;;
42084;SDS011;27746;52.228;20.890;2023-08-30T08:40:36;17.20;;;11.75;;
42084;SDS011;27746;52.228;20.890;2023-08-30T08:43:04;17.88;;;12.25;;
42084;SDS011;27746;52.228;20.890;2023-08-30T08:45:32;21.83;;;12.98;;
42084;SDS011;27746;52.228;20.890;2023-08-30T08:48:01;21.83;;;12.88;;
42084;SDS011;27746;52.228;20.890;2023-08-30T08:50:30;16.58;;;10.95;;
42084;SDS011;27746;52.228;20.890;2023-08-30T08:52:57;18.50;;;12.15;;
42084;SDS011;27746;52.228;20.890;2023-08-30T08:55:26;16.17;;;10.88;;
42084;SDS011;27746;52.228;20.890;2023-08-30T08:57:55;17.52;;;9.98;;
42084;SDS011;27746;52.228;20.890;2023-08-30T09:00:23;13.52;;;9.70;;
42084;SDS011;27746;52.228;20.890;2023-08-30T09:02:50;14.68;;;9.68;;
42084;SDS011;27746;52.228;20.890;2023-08-30T09:05:17;13.10;;;9.68;;
42084;SDS011;27746;52.228;20.890;2023-08-30T09:07:45;12.50;;;8.32;;
42084;SDS011;27746;52.228;20.890;2023-08-30T09:10:12;11.98;;;8.32;;
42084;SDS011;27746;52.228;20.890;2023-08-30T09:12:40;12.70;;;8.25;;
42084;SDS011;27746;52.228;20.890;2023-08-30T09:15:08;14.25;;;8.95;;
42084;SDS011;27746;52.228;20.890;2023-08-30T09:17:35;11.05;;;7.38;;
42084;SDS011;27746;52.228;20.890;2023-08-30T09:20:06;10.90;;;7.68;;
42084;SDS011;27746;52.228;20.890;2023-08-30T09:22:37;11.52;;;7.88;;
42084;SDS011;27746;52.228;20.890;2023-08-30T09:25:04;12.57;;;8.23;;
42084;SDS011;27746;52.228;20.890;2023-08-30T09:27:32;11.98;;;7.75;;
42084;SDS011;27746;52.228;20.890;2023-08-30T09:30:01;11.57;;;7.97;;
42084;SDS011;27746;52.228;20.890;2023-08-30T09:32:28;13.38;;;8.30;;
42084;SDS011;27746;52.228;20.890;2023-08-30T09:34:56;11.60;;;8.63;;
42084;SDS011;27746;52.228;20.890;2023-08-30T09:37:23;14.82;;;10.07;;
42084;SDS011;27746;52.228;20.890;2023-08-30T09:39:51;15.05;;;9.30;;
42084;SDS011;27746;52.228;20.890;2023-08-30T09:42:19;11.73;;;8.45;;
42084;SDS011;27746;52.228;20.890;2023-08-30T09:44:47;12.20;;;8.13;;
42084;SDS011;27746;52.228;20.890;2023-08-30T09:47:15;17.48;;;9.07;;
42084;SDS011;27746;52.228;20.890;2023-08-30T09:49:43;15.02;;;9.48;;
42084;SDS011;27746;52.228;20.890;2023-08-30T09:52:12;17.00;;;9.80;;
42084;SDS011;27746;52.228;20.890;2023-08-30T09:54:42;15.77;;;10.40;;
42084;SDS011;27746;52.228;20.890;2023-08-30T09:57:09;18.35;;;10.32;;
42084;SDS011;27746;52.228;20.890;2023-08-30T09:59:37;23.45;;;11.65;;
42084;SDS011;27746;52.228;20.890;2023-08-30T10:02:05;18.83;;;12.20;;
42084;SDS011;27746;52.228;20.890;2023-08-30T10:04:37;18.77;;;11.43;;
42084;SDS011;27746;52.228;20.890;2023-08-30T10:07:05;20.55;;;12.02;;
42084;SDS011;27746;52.228;20.890;2023-08-30T10:09:33;18.40;;;12.30;;
42084;SDS011;27746;52.228;20.890;2023-08-30T10:12:00;20.95;;;12.50;;
42084;SDS011;27746;52.228;20.890;2023-08-30T10:14:28;20.35;;;12.60;;
42084;SDS011;27746;52.228;20.890;2023-08-30T10:16:58;18.58;;;11.80;;
42084;SDS011;27746;52.228;20.890;2023-08-30T10:19:27;17.15;;;11.10;;
42084;SDS011;27746;52.228;20.890;2023-08-30T10:21:58;18.42;;;10.48;;
42084;SDS011;27746;52.228;20.890;2023-08-30T10:24:27;15.43;;;10.25;;
42084;SDS011;27746;52.228;20.890;2023-08-30T10:26:55;15.77;;;11.05;;
42084;SDS011;27746;52.228;20.890;2023-08-30T10:29:23;15.63;;;10.35;;
42084;SDS011;27746;52.228;20.890;2023-08-30T10:31:51;17.25;;;11.30;;
42084;SDS011;27746;52.228;20.890;2023-08-30T10:34:18;16.63;;;11.00;;
42084;SDS011;27746;52.228;20.890;2023-08-30T10:36:55;18.63;;;12.00;;
42084;SDS011;27746;52.228;20.890;2023-08-30T10:39:27;11.65;;;8.07;;
42084;SDS011;27746;52.228;20.890;2023-08-30T10:41:54;14.45;;;8.93;;
42084;SDS011;27746;52.228;20.890;2023-08-30T10:44:23;13.00;;;8.13;;
42084;SDS011;27746;52.228;20.890;2023-08-30T10:46:54;11.93;;;7.60;;
42084;SDS011;27746;52.228;20.890;2023-08-30T10:49:21;11.60;;;7.65;;
42084;SDS011;27746;52.228;20.890;2023-08-30T10:51:55;10.02;;;6.35;;
42084;SDS011;27746;52.228;20.890;2023-08-30T10:54:25;11.93;;;7.15;;
42084;SDS011;27746;52.228;20.890;2023-08-30T10:56:56;10.68;;;7.35;;
42084;SDS011;27746;52.228;20.890;2023-08-30T10:59:25;11.07;;;6.80;;
42084;SDS011;27746;52.228;20.890;2023-08-30T11:01:52;10.63;;;6.50;;
42084;SDS011;27746;52.228;20.890;2023-08-30T11:04:21;10.38;;;7.25;;
42084;SDS011;27746;52.228;20.890;2023-08-30T11:06:48;9.77;;;7.07;;
42084;SDS011;27746;52.228;20.890;2023-08-30T11:09:16;11.32;;;7.43;;
42084;SDS011;27746;52.228;20.890;2023-08-30T11:11:45;11.50;;;6.20;;
42084;SDS011;27746;52.228;20.890;2023-08-30T11:14:13;11.18;;;6.78;;
42084;SDS011;27746;52.228;20.890;2023-08-30T11:16:40;10.50;;;6.97;;
42084;SDS011;27746;52.228;20.890;2023-08-30T11:19:08;10.13;;;6.65;;
42084;SDS011;27746;52.228;20.890;2023-08-30T11:21:36;10.10;;;7.22;;
42084;SDS011;27746;52.228;20.890;2023-08-30T11:24:04;10.35;;;6.65;;
42084;SDS011;27746;52.228;20.890;2023-08-30T11:26:31;10.50;;;7.60;;
42084;SDS011;27746;52.228;20.890;2023-08-30T11:29:05;11.57;;;7.80;;
42084;SDS011;27746;52.228;20.890;2023-08-30T11:31:32;9.70;;;6.75;;
42084;SDS011;27746;52.228;20.890;2023-08-30T11:34:00;8.35;;;6.15;;
42084;SDS011;27746;52.228;20.890;2023-08-30T11:36:28;8.77;;;5.93;;
42084;SDS011;27746;52.228;20.890;2023-08-30T11:38:55;10.80;;;6.40;;
42084;SDS011;27746;52.228;20.890;2023-08-30T11:41:23;8.73;;;6.15;;
42084;SDS011;27746;52.228;20.890;2023-08-30T11:43:50;10.13;;;6.13;;
42084;SDS011;27746;52.228;20.890;2023-08-30T11:46:19;10.68;;;5.75;;
42084;SDS011;27746;52.228;20.890;2023-08-30T11:48:47;10.05;;;6.85;;
42084;SDS011;27746;52.228;20.890;2023-08-30T11:51:14;8.88;;;5.70;;
42084;SDS011;27746;52.228;20.890;2023-08-30T11:53:41;10.07;;;6.05;;
42084;SDS011;27746;52.228;20.890;2023-08-30T11:56:09;8.20;;;6.03;;
42084;SDS011;27746;52.228;20.890;2023-08-30T11:58:37;7.47;;;5.47;;
42084;SDS011;27746;52.228;20.890;2023-08-30T12:01:04;9.43;;;5.57;;
42084;SDS011;27746;52.228;20.890;2023-08-30T12:03:32;8.00;;;5.22;;
42084;SDS011;27746;52.228;20.890;2023-08-30T12:06:00;9.82;;;6.18;;
42084;SDS011;27746;52.228;20.890;2023-08-30T12:08:28;10.52;;;7.20;;
42084;SDS011;27746;52.228;20.890;2023-08-30T12:10:55;11.02;;;7.30;;
42084;SDS011;27746;52.228;20.890;2023-08-30T12:13:23;12.68;;;6.88;;
42084;SDS011;27746;52.228;20.890;2023-08-30T12:15:50;10.82;;;6.93;;
42084;SDS011;27746;52.228;20.890;2023-08-30T12:18:20;10.40;;;6.95;;
42084;SDS011;27746;52.228;20.890;2023-08-30T12:20:53;10.50;;;6.15;;
42084;SDS011;27746;52.228;20.890;2023-08-30T12:23:20;10.23;;;6.47;;
42084;SDS011;27746;52.228;20.890;2023-08-30T12:25:57;8.63;;;5.85;;
42084;SDS011;27746;52.228;20.890;2023-08-30T12:28:25;10.38;;;6.55;;
42084;SDS011;27746;52.228;20.890;2023-08-30T12:30:53;9.05;;;5.88;;
42084;SDS011;27746;52.228;20.890;2023-08-30T12:33:20;10.00;;;6.72;;
42084;SDS011;27746;52.228;20.890;2023-08-30T12:35:47;10.07;;;6.47;;
42084;SDS011;27746;52.228;20.890;2023-08-30T12:38:16;10.57;;;6.22;;
42084;SDS011;27746;52.228;20.890;2023-08-30T12:40:44;10.30;;;6.40;;
42084;SDS011;27746;52.228;20.890;2023-08-30T12:43:11;11.38;;;6.72;;
42084;SDS011;27746;52.228;20.890;2023-08-30T12:45:38;9.55;;;6.47;;
42084;SDS011;27746;52.228;20.890;2023-08-30T12:48:06;9.93;;;6.88;;
42084;SDS011;27746;52.228;20.890;2023-08-30T12:50:33;10.63;;;7.15;;
42084;SDS011;27746;52.228;20.890;2023-08-30T12:53:01;9.68;;;6.13;;
42084;SDS011;27746;52.228;20.890;2023-08-30T12:55:30;10.10;;;6.68;;
42084;SDS011;27746;52.228;20.890;2023-08-30T12:57:57;11.05;;;7.40;;
42084;SDS011;27746;52.228;20.890;2023-08-30T13:00:24;10.63;;;7.13;;
42084;SDS011;27746;52.228;20.890;2023-08-30T13:02:51;11.40;;;6.70;;
42084;SDS011;27746;52.228;20.890;2023-08-30T13:05:19;9.25;;;6.60;;
42084;SDS011;27746;52.228;20.890;2023-08-30T13:07:46;11.02;;;7.72;;
42084;SDS011;27746;52.228;20.890;2023-08-30T13:10:14;11.65;;;7.72;;
42084;SDS011;27746;52.228;20.890;2023-08-30T13:12:43;12.10;;;8.35;;
42084;SDS011;27746;52.228;20.890;2023-08-30T13:15:10;11.00;;;7.32;;
42084;SDS011;27746;52.228;20.890;2023-08-30T13:17:37;9.93;;;6.55;;
42084;SDS011;27746;52.228;20.890;2023-08-30T13:20:05;9.98;;;7.03;;
42084;SDS011;27746;52.228;20.890;2023-08-30T13:22:32;9.75;;;6.60;;
42084;SDS011;27746;52.228;20.890;2023-08-30T13:24:59;9.82;;;6.50;;
42084;SDS011;27746;52.228;20.890;2023-08-30T13:27:28;10.93;;;7.13;;
42084;SDS011;27746;52.228;20.890;2023-08-30T13:29:57;10.65;;;7.03;;
42084;SDS011;27746;52.228;20.890;2023-08-30T13:32:24;10.98;;;6.80;;
42084;SDS011;27746;52.228;20.890;2023-08-30T13:34:52;10.63;;;6.82;;
42084;SDS011;27746;52.228;20.890;2023-08-30T13:37:19;12.15;;;6.72;;
42084;SDS011;27746;52.228;20.890;2023-08-30T13:39:48;10.38;;;7.07;;
42084;SDS011;27746;52.228;20.890;2023-08-30T13:42:15;9.63;;;6.55;;
42084;SDS011;27746;52.228;20.890;2023-08-30T13:44:42;11.70;;;6.72;;
42084;SDS011;27746;52.228;20.890;2023-08-30T13:47:11;8.55;;;5.57;;
42084;SDS011;27746;52.228;20.890;2023-08-30T13:49:40;9.77;;;5.90;;
42084;SDS011;27746;52.228;20.890;2023-08-30T13:52:08;8.82;;;5.93;;
42084;SDS011;27746;52.228;20.890;2023-08-30T13:54:35;8.48;;;5.88;;
42084;SDS011;27746;52.228;20.890;2023-08-30T13:57:02;10.02;;;6.35;;
42084;SDS011;27746;52.228;20.890;2023-08-30T13:59:29;8.73;;;6.20;;
42084;SDS011;27746;52.228;20.890;2023-08-30T14:01:57;6.93;;;4.90;;
42084;SDS011;27746;52.228;20.890;2023-08-30T14:04:26;11.27;;;6.07;;
42084;SDS011;27746;52.228;20.890;2023-08-30T14:06:54;9.23;;;5.97;;
42084;SDS011;27746;52.228;20.890;2023-08-30T14:09:21;9.15;;;5.72;;
42084;SDS011;27746;52.228;20.890;2023-08-30T14:11:49;9.80;;;6.07;;
42084;SDS011;27746;52.228;20.890;2023-08-30T14:14:16;11.50;;;5.57;;
42084;SDS011;27746;52.228;20.890;2023-08-30T14:16:43;9.32;;;5.97;;
42084;SDS011;27746;52.228;20.890;2023-08-30T14:19:10;8.00;;;5.07;;